London Corbin Airport Magee Field
KLOZ : now visible

Airfield :











YOU CAN JOIN US ON...

 
LOGIN :

Register | Disclaimer

   EN    FR    IT 

 









Legend :    VFR   Marginal VFR   IFR   Intensive IFR   Very Intensive IFR
Visi :
Ceiling :
>= 8 km
>= 3000ft
5 to 8 km
1000 to 3000 ft
1500m to 5 km
500 to 1000 ft
800 to 1500m
200 to 500 ft
< 800m
< 200 ft
Symbols :   Thunderstorms  Fog  Heavy snow  Heavy precipitations  Wind > 20 kt






- Airport Elevation : 1212 ft


KLOZ - London Corbin Magee Field

CURRENT METAR :
  • 221253Z AUTO 00000KT 10SM M11/M12 A3040 RMK AO2 SLP313 T11111122 $

EXPIRED METARs :
  • 221153Z AUTO 00000KT 10SM FEW016 M11/M12 A3039 RMK AO2 SLP308 T11061122 11072 21106 53003
  • 221145Z AUTO 00000KT 10SM SCT016 M10/M12 A3038 RMK AO2 T11001122
  • 221136Z AUTO 00000KT 10SM BKN016 M10/M12 A3038 RMK AO2 T11001117
  • 221053Z AUTO 12003KT 10SM CLR M09/M12 A3037 RMK AO2 SLP302 T10941117

TAF KLOZ
Valid from the 22 at 12:00 until the 23 at 12:00 UTC


221131Z 2212/2312 VRB03KT P6SM SKC
FM230900 VRB04KT P6SM SCT200
KZID FIR / North America



MET'MAP, your aeronautical weather chart ! - Copyright ORBIFLY December 2007 - Disclaimer

ORBIFLY MET'MAP TEAM :

Programming & Development : Alexandra Zaïnal
Concept & original design : Baudouin d'Aumeries
Assistance for programming : Marc-Olivier Méhu
Technical & hardware support : Manuel Goepfert

Contact : metmap@orbifly.com




SOURCES & CREDITS :

   NOAA       Earth
Advisory